sensor_id;sensor_type;location;lat;lon;timestamp;P1;durP1;ratioP1;P2;durP2;ratioP2
77310;SDS011;66371;52.714;5.074;2023-07-20T00:02:13;4.80;;;4.40;;
77310;SDS011;66371;52.714;5.074;2023-07-20T00:04:39;6.38;;;5.88;;
77310;SDS011;66371;52.714;5.074;2023-07-20T00:07:04;5.43;;;4.90;;
77310;SDS011;66371;52.714;5.074;2023-07-20T00:09:30;5.28;;;4.78;;
77310;SDS011;66371;52.714;5.074;2023-07-20T00:11:56;5.68;;;5.25;;
77310;SDS011;66371;52.714;5.074;2023-07-20T00:14:21;6.32;;;5.82;;
77310;SDS011;66371;52.714;5.074;2023-07-20T00:16:47;4.90;;;4.50;;
77310;SDS011;66371;52.714;5.074;2023-07-20T00:19:20;5.65;;;5.15;;
77310;SDS011;66371;52.714;5.074;2023-07-20T00:21:46;6.10;;;5.70;;
77310;SDS011;66371;52.714;5.074;2023-07-20T00:24:12;6.10;;;5.60;;
77310;SDS011;66371;52.714;5.074;2023-07-20T00:26:37;5.10;;;4.60;;
77310;SDS011;66371;52.714;5.074;2023-07-20T00:29:03;5.55;;;5.15;;
77310;SDS011;66371;52.714;5.074;2023-07-20T00:31:28;6.50;;;6.00;;
77310;SDS011;66371;52.714;5.074;2023-07-20T00:33:54;6.85;;;6.35;;
77310;SDS011;66371;52.714;5.074;2023-07-20T00:36:20;5.50;;;5.10;;
77310;SDS011;66371;52.714;5.074;2023-07-20T00:38:45;6.63;;;6.03;;
77310;SDS011;66371;52.714;5.074;2023-07-20T00:41:11;6.27;;;5.77;;
77310;SDS011;66371;52.714;5.074;2023-07-20T00:43:36;7.00;;;6.50;;
77310;SDS011;66371;52.714;5.074;2023-07-20T00:46:01;6.00;;;5.47;;
77310;SDS011;66371;52.714;5.074;2023-07-20T00:48:28;5.45;;;4.95;;
77310;SDS011;66371;52.714;5.074;2023-07-20T00:50:54;6.47;;;5.88;;
77310;SDS011;66371;52.714;5.074;2023-07-20T00:53:20;6.60;;;6.00;;
77310;SDS011;66371;52.714;5.074;2023-07-20T00:55:46;6.03;;;5.53;;
77310;SDS011;66371;52.714;5.074;2023-07-20T00:58:11;5.82;;;5.43;;
77310;SDS011;66371;52.714;5.074;2023-07-20T01:03:12;7.57;;;6.97;;
77310;SDS011;66371;52.714;5.074;2023-07-20T01:05:47;5.38;;;4.78;;
77310;SDS011;66371;52.714;5.074;2023-07-20T01:11:36;5.93;;;5.53;;
77310;SDS011;66371;52.714;5.074;2023-07-20T01:14:18;6.03;;;5.35;;
77310;SDS011;66371;52.714;5.074;2023-07-20T01:16:43;5.90;;;5.40;;
77310;SDS011;66371;52.714;5.074;2023-07-20T01:19:09;6.22;;;5.72;;
77310;SDS011;66371;52.714;5.074;2023-07-20T01:21:39;6.35;;;5.80;;
77310;SDS011;66371;52.714;5.074;2023-07-20T01:24:15;5.60;;;5.20;;
77310;SDS011;66371;52.714;5.074;2023-07-20T01:29:22;6.45;;;6.05;;
77310;SDS011;66371;52.714;5.074;2023-07-20T01:31:54;6.70;;;6.20;;
77310;SDS011;66371;52.714;5.074;2023-07-20T01:34:20;5.93;;;5.53;;
77310;SDS011;66371;52.714;5.074;2023-07-20T01:36:49;5.78;;;5.38;;
77310;SDS011;66371;52.714;5.074;2023-07-20T01:39:17;5.72;;;4.85;;
77310;SDS011;66371;52.714;5.074;2023-07-20T01:41:44;5.00;;;4.60;;
77310;SDS011;66371;52.714;5.074;2023-07-20T01:44:10;5.75;;;5.25;;
77310;SDS011;66371;52.714;5.074;2023-07-20T01:46:36;5.78;;;5.38;;
77310;SDS011;66371;52.714;5.074;2023-07-20T01:49:02;5.70;;;5.30;;
77310;SDS011;66371;52.714;5.074;2023-07-20T01:51:27;5.43;;;4.95;;
77310;SDS011;66371;52.714;5.074;2023-07-20T01:53:52;4.67;;;4.27;;
77310;SDS011;66371;52.714;5.074;2023-07-20T01:56:18;5.40;;;4.90;;
77310;SDS011;66371;52.714;5.074;2023-07-20T01:58:43;4.33;;;4.03;;
77310;SDS011;66371;52.714;5.074;2023-07-20T02:01:09;4.88;;;4.57;;
77310;SDS011;66371;52.714;5.074;2023-07-20T02:03:34;5.15;;;4.75;;
77310;SDS011;66371;52.714;5.074;2023-07-20T02:06:00;5.25;;;4.93;;
77310;SDS011;66371;52.714;5.074;2023-07-20T02:08:26;5.00;;;4.70;;
77310;SDS011;66371;52.714;5.074;2023-07-20T02:10:51;4.32;;;4.03;;
77310;SDS011;66371;52.714;5.074;2023-07-20T02:13:17;5.15;;;4.85;;
77310;SDS011;66371;52.714;5.074;2023-07-20T02:15:42;4.40;;;4.00;;
77310;SDS011;66371;52.714;5.074;2023-07-20T02:18:08;3.97;;;3.67;;
77310;SDS011;66371;52.714;5.074;2023-07-20T02:20:34;5.65;;;5.25;;
77310;SDS011;66371;52.714;5.074;2023-07-20T02:23:00;3.88;;;3.58;;
77310;SDS011;66371;52.714;5.074;2023-07-20T02:25:26;5.03;;;4.63;;
77310;SDS011;66371;52.714;5.074;2023-07-20T02:27:51;4.10;;;3.55;;
77310;SDS011;66371;52.714;5.074;2023-07-20T02:30:17;5.13;;;3.42;;
77310;SDS011;66371;52.714;5.074;2023-07-20T02:32:43;3.70;;;3.50;;
77310;SDS011;66371;52.714;5.074;2023-07-20T02:35:10;5.03;;;4.63;;
77310;SDS011;66371;52.714;5.074;2023-07-20T02:37:36;5.72;;;5.32;;
77310;SDS011;66371;52.714;5.074;2023-07-20T02:40:02;4.57;;;4.28;;
77310;SDS011;66371;52.714;5.074;2023-07-20T02:42:29;4.63;;;4.32;;
77310;SDS011;66371;52.714;5.074;2023-07-20T02:44:55;4.70;;;4.40;;
77310;SDS011;66371;52.714;5.074;2023-07-20T02:47:20;4.95;;;4.50;;
77310;SDS011;66371;52.714;5.074;2023-07-20T02:49:45;3.50;;;3.28;;
77310;SDS011;66371;52.714;5.074;2023-07-20T02:52:11;3.72;;;3.47;;
77310;SDS011;66371;52.714;5.074;2023-07-20T02:54:36;4.17;;;3.87;;
77310;SDS011;66371;52.714;5.074;2023-07-20T02:57:01;4.80;;;4.50;;
77310;SDS011;66371;52.714;5.074;2023-07-20T02:59:27;4.38;;;4.07;;
77310;SDS011;66371;52.714;5.074;2023-07-20T03:01:52;5.13;;;4.73;;
77310;SDS011;66371;52.714;5.074;2023-07-20T03:04:19;5.35;;;5.05;;
77310;SDS011;66371;52.714;5.074;2023-07-20T03:06:44;4.90;;;4.60;;
77310;SDS011;66371;52.714;5.074;2023-07-20T03:09:10;5.05;;;4.45;;
77310;SDS011;66371;52.714;5.074;2023-07-20T03:11:35;5.28;;;4.97;;
77310;SDS011;66371;52.714;5.074;2023-07-20T03:14:01;5.30;;;4.75;;
77310;SDS011;66371;52.714;5.074;2023-07-20T03:16:26;5.63;;;5.23;;
77310;SDS011;66371;52.714;5.074;2023-07-20T03:18:52;4.77;;;4.43;;
77310;SDS011;66371;52.714;5.074;2023-07-20T03:21:17;5.45;;;4.38;;
77310;SDS011;66371;52.714;5.074;2023-07-20T03:23:43;4.85;;;4.40;;
77310;SDS011;66371;52.714;5.074;2023-07-20T03:26:08;6.20;;;5.80;;
77310;SDS011;66371;52.714;5.074;2023-07-20T03:28:34;5.18;;;4.88;;
77310;SDS011;66371;52.714;5.074;2023-07-20T03:31:00;6.13;;;5.68;;
77310;SDS011;66371;52.714;5.074;2023-07-20T03:33:26;5.30;;;4.90;;
77310;SDS011;66371;52.714;5.074;2023-07-20T03:35:53;5.68;;;5.18;;
77310;SDS011;66371;52.714;5.074;2023-07-20T03:38:19;7.03;;;5.50;;
77310;SDS011;66371;52.714;5.074;2023-07-20T03:43:23;6.30;;;5.80;;
77310;SDS011;66371;52.714;5.074;2023-07-20T03:45:50;4.95;;;4.55;;
77310;SDS011;66371;52.714;5.074;2023-07-20T03:48:16;5.53;;;4.90;;
77310;SDS011;66371;52.714;5.074;2023-07-20T03:50:46;5.38;;;4.97;;
77310;SDS011;66371;52.714;5.074;2023-07-20T03:53:12;5.10;;;4.70;;
77310;SDS011;66371;52.714;5.074;2023-07-20T03:55:38;5.68;;;5.28;;
77310;SDS011;66371;52.714;5.074;2023-07-20T03:58:05;6.40;;;6.00;;
77310;SDS011;66371;52.714;5.074;2023-07-20T04:00:31;6.03;;;5.63;;
77310;SDS011;66371;52.714;5.074;2023-07-20T04:02:56;5.90;;;5.40;;
77310;SDS011;66371;52.714;5.074;2023-07-20T04:05:22;5.85;;;5.40;;
77310;SDS011;66371;52.714;5.074;2023-07-20T04:07:47;6.30;;;5.90;;
77310;SDS011;66371;52.714;5.074;2023-07-20T04:10:12;7.07;;;5.38;;
77310;SDS011;66371;52.714;5.074;2023-07-20T04:12:38;6.25;;;5.85;;
77310;SDS011;66371;52.714;5.074;2023-07-20T04:15:03;7.03;;;6.32;;
77310;SDS011;66371;52.714;5.074;2023-07-20T04:17:29;5.10;;;4.70;;
77310;SDS011;66371;52.714;5.074;2023-07-20T04:19:54;6.50;;;5.60;;
77310;SDS011;66371;52.714;5.074;2023-07-20T04:22:20;5.47;;;5.00;;
77310;SDS011;66371;52.714;5.074;2023-07-20T04:24:46;6.65;;;6.13;;
77310;SDS011;66371;52.714;5.074;2023-07-20T04:27:11;5.50;;;5.00;;
77310;SDS011;66371;52.714;5.074;2023-07-20T04:29:36;5.97;;;5.57;;
77310;SDS011;66371;52.714;5.074;2023-07-20T04:32:02;6.13;;;5.63;;
77310;SDS011;66371;52.714;5.074;2023-07-20T04:34:27;5.50;;;5.10;;
77310;SDS011;66371;52.714;5.074;2023-07-20T04:36:53;4.87;;;4.57;;
77310;SDS011;66371;52.714;5.074;2023-07-20T04:39:18;5.07;;;4.67;;
77310;SDS011;66371;52.714;5.074;2023-07-20T04:41:43;4.77;;;4.30;;
77310;SDS011;66371;52.714;5.074;2023-07-20T04:44:09;4.32;;;3.95;;
77310;SDS011;66371;52.714;5.074;2023-07-20T04:46:34;5.97;;;5.47;;
77310;SDS011;66371;52.714;5.074;2023-07-20T04:48:59;5.00;;;4.50;;
77310;SDS011;66371;52.714;5.074;2023-07-20T04:51:25;4.88;;;4.47;;
77310;SDS011;66371;52.714;5.074;2023-07-20T04:53:50;5.73;;;5.33;;
77310;SDS011;66371;52.714;5.074;2023-07-20T04:56:16;5.70;;;5.30;;
77310;SDS011;66371;52.714;5.074;2023-07-20T04:58:41;6.82;;;6.32;;
77310;SDS011;66371;52.714;5.074;2023-07-20T05:01:08;4.57;;;4.17;;
77310;SDS011;66371;52.714;5.074;2023-07-20T05:03:33;5.18;;;4.78;;
77310;SDS011;66371;52.714;5.074;2023-07-20T05:05:59;5.20;;;4.70;;
77310;SDS011;66371;52.714;5.074;2023-07-20T05:08:24;4.55;;;4.22;;
77310;SDS011;66371;52.714;5.074;2023-07-20T05:10:50;4.70;;;4.30;;
77310;SDS011;66371;52.714;5.074;2023-07-20T05:13:16;5.28;;;4.80;;
77310;SDS011;66371;52.714;5.074;2023-07-20T05:15:41;5.50;;;5.10;;
77310;SDS011;66371;52.714;5.074;2023-07-20T05:18:07;5.65;;;5.15;;
77310;SDS011;66371;52.714;5.074;2023-07-20T05:20:33;6.53;;;4.72;;
77310;SDS011;66371;52.714;5.074;2023-07-20T05:22:59;6.45;;;4.75;;
77310;SDS011;66371;52.714;5.074;2023-07-20T05:25:25;5.88;;;5.40;;
77310;SDS011;66371;52.714;5.074;2023-07-20T05:27:51;5.78;;;5.22;;
77310;SDS011;66371;52.714;5.074;2023-07-20T05:30:17;5.75;;;5.32;;
77310;SDS011;66371;52.714;5.074;2023-07-20T05:32:43;5.40;;;5.05;;
77310;SDS011;66371;52.714;5.074;2023-07-20T05:35:12;5.38;;;5.03;;
77310;SDS011;66371;52.714;5.074;2023-07-20T05:37:37;4.78;;;4.38;;
77310;SDS011;66371;52.714;5.074;2023-07-20T05:40:03;4.45;;;4.05;;
77310;SDS011;66371;52.714;5.074;2023-07-20T05:42:30;5.90;;;4.05;;
77310;SDS011;66371;52.714;5.074;2023-07-20T05:44:55;4.90;;;4.47;;
77310;SDS011;66371;52.714;5.074;2023-07-20T05:47:21;4.93;;;4.53;;
77310;SDS011;66371;52.714;5.074;2023-07-20T05:49:46;3.83;;;3.53;;
77310;SDS011;66371;52.714;5.074;2023-07-20T05:52:11;3.88;;;3.58;;
77310;SDS011;66371;52.714;5.074;2023-07-20T05:54:37;3.93;;;3.63;;
77310;SDS011;66371;52.714;5.074;2023-07-20T05:57:02;3.85;;;3.28;;
77310;SDS011;66371;52.714;5.074;2023-07-20T05:59:28;5.78;;;5.43;;
77310;SDS011;66371;52.714;5.074;2023-07-20T06:01:56;3.83;;;3.38;;
77310;SDS011;66371;52.714;5.074;2023-07-20T06:04:22;3.55;;;3.22;;
77310;SDS011;66371;52.714;5.074;2023-07-20T06:06:47;3.78;;;3.47;;
77310;SDS011;66371;52.714;5.074;2023-07-20T06:09:13;3.95;;;3.65;;
77310;SDS011;66371;52.714;5.074;2023-07-20T06:11:39;3.00;;;2.80;;
77310;SDS011;66371;52.714;5.074;2023-07-20T06:14:04;3.08;;;2.78;;
77310;SDS011;66371;52.714;5.074;2023-07-20T06:16:30;3.47;;;2.65;;
77310;SDS011;66371;52.714;5.074;2023-07-20T06:18:55;3.27;;;3.03;;
77310;SDS011;66371;52.714;5.074;2023-07-20T06:21:21;3.95;;;3.17;;
77310;SDS011;66371;52.714;5.074;2023-07-20T06:23:46;2.73;;;2.53;;
77310;SDS011;66371;52.714;5.074;2023-07-20T06:26:11;3.30;;;2.47;;
77310;SDS011;66371;52.714;5.074;2023-07-20T06:28:37;3.05;;;2.50;;
77310;SDS011;66371;52.714;5.074;2023-07-20T06:31:03;4.10;;;3.80;;
77310;SDS011;66371;52.714;5.074;2023-07-20T06:33:29;3.47;;;3.25;;
77310;SDS011;66371;52.714;5.074;2023-07-20T06:35:54;4.80;;;3.30;;
77310;SDS011;66371;52.714;5.074;2023-07-20T06:38:20;2.63;;;2.42;;
77310;SDS011;66371;52.714;5.074;2023-07-20T06:40:46;5.90;;;3.15;;
77310;SDS011;66371;52.714;5.074;2023-07-20T06:43:12;4.20;;;3.25;;
77310;SDS011;66371;52.714;5.074;2023-07-20T06:45:37;3.55;;;3.13;;
77310;SDS011;66371;52.714;5.074;2023-07-20T06:48:03;2.70;;;2.30;;
77310;SDS011;66371;52.714;5.074;2023-07-20T06:50:28;3.63;;;3.42;;
77310;SDS011;66371;52.714;5.074;2023-07-20T06:52:54;2.63;;;2.42;;
77310;SDS011;66371;52.714;5.074;2023-07-20T06:55:19;2.78;;;2.58;;
77310;SDS011;66371;52.714;5.074;2023-07-20T06:57:45;2.75;;;2.55;;
77310;SDS011;66371;52.714;5.074;2023-07-20T07:00:10;2.88;;;2.42;;
77310;SDS011;66371;52.714;5.074;2023-07-20T07:02:36;2.75;;;2.55;;
77310;SDS011;66371;52.714;5.074;2023-07-20T07:05:01;2.72;;;2.53;;
77310;SDS011;66371;52.714;5.074;2023-07-20T07:07:27;4.20;;;3.67;;
77310;SDS011;66371;52.714;5.074;2023-07-20T07:09:52;4.25;;;3.80;;
77310;SDS011;66371;52.714;5.074;2023-07-20T07:12:18;3.97;;;3.67;;
77310;SDS011;66371;52.714;5.074;2023-07-20T07:14:43;2.97;;;2.67;;
77310;SDS011;66371;52.714;5.074;2023-07-20T07:17:08;2.97;;;2.77;;
77310;SDS011;66371;52.714;5.074;2023-07-20T07:19:34;2.77;;;2.57;;
77310;SDS011;66371;52.714;5.074;2023-07-20T07:22:00;3.15;;;2.95;;
77310;SDS011;66371;52.714;5.074;2023-07-20T07:24:26;3.47;;;3.17;;
77310;SDS011;66371;52.714;5.074;2023-07-20T07:26:52;3.05;;;2.33;;
77310;SDS011;66371;52.714;5.074;2023-07-20T07:29:18;2.97;;;2.75;;
77310;SDS011;66371;52.714;5.074;2023-07-20T07:31:43;3.73;;;2.20;;
77310;SDS011;66371;52.714;5.074;2023-07-20T07:34:08;2.27;;;1.97;;
77310;SDS011;66371;52.714;5.074;2023-07-20T07:36:34;3.03;;;2.65;;
77310;SDS011;66371;52.714;5.074;2023-07-20T07:39:00;3.45;;;3.25;;
77310;SDS011;66371;52.714;5.074;2023-07-20T07:41:25;3.20;;;3.00;;
77310;SDS011;66371;52.714;5.074;2023-07-20T07:43:50;2.40;;;2.00;;
77310;SDS011;66371;52.714;5.074;2023-07-20T07:46:16;3.92;;;3.63;;
77310;SDS011;66371;52.714;5.074;2023-07-20T07:48:42;2.72;;;1.90;;
77310;SDS011;66371;52.714;5.074;2023-07-20T07:51:07;2.50;;;2.30;;
77310;SDS011;66371;52.714;5.074;2023-07-20T07:53:33;2.67;;;2.47;;
77310;SDS011;66371;52.714;5.074;2023-07-20T07:56:01;2.58;;;2.38;;
77310;SDS011;66371;52.714;5.074;2023-07-20T07:58:28;7.50;;;3.70;;
77310;SDS011;66371;52.714;5.074;2023-07-20T08:00:53;3.53;;;3.23;;
77310;SDS011;66371;52.714;5.074;2023-07-20T08:03:18;3.50;;;2.85;;
77310;SDS011;66371;52.714;5.074;2023-07-20T08:05:44;3.83;;;3.53;;
77310;SDS011;66371;52.714;5.074;2023-07-20T08:08:09;3.80;;;2.42;;
77310;SDS011;66371;52.714;5.074;2023-07-20T08:10:35;3.70;;;3.40;;
77310;SDS011;66371;52.714;5.074;2023-07-20T08:13:00;3.23;;;2.93;;
77310;SDS011;66371;52.714;5.074;2023-07-20T08:15:25;4.22;;;3.83;;
77310;SDS011;66371;52.714;5.074;2023-07-20T08:17:51;5.90;;;4.00;;
77310;SDS011;66371;52.714;5.074;2023-07-20T08:20:17;3.30;;;3.08;;
77310;SDS011;66371;52.714;5.074;2023-07-20T08:22:43;4.03;;;3.72;;
77310;SDS011;66371;52.714;5.074;2023-07-20T08:25:09;4.35;;;4.05;;
77310;SDS011;66371;52.714;5.074;2023-07-20T08:27:39;2.88;;;2.45;;
77310;SDS011;66371;52.714;5.074;2023-07-20T08:30:14;3.45;;;2.83;;
77310;SDS011;66371;52.714;5.074;2023-07-20T08:32:40;3.47;;;3.15;;
77310;SDS011;66371;52.714;5.074;2023-07-20T08:35:05;3.33;;;3.03;;
77310;SDS011;66371;52.714;5.074;2023-07-20T08:37:31;4.18;;;3.78;;
77310;SDS011;66371;52.714;5.074;2023-07-20T08:39:56;4.22;;;3.33;;
77310;SDS011;66371;52.714;5.074;2023-07-20T08:42:22;2.78;;;2.42;;
77310;SDS011;66371;52.714;5.074;2023-07-20T08:44:48;2.78;;;2.58;;
77310;SDS011;66371;52.714;5.074;2023-07-20T08:47:14;3.75;;;3.45;;
77310;SDS011;66371;52.714;5.074;2023-07-20T08:49:41;3.95;;;3.58;;
77310;SDS011;66371;52.714;5.074;2023-07-20T08:52:07;3.72;;;3.20;;
77310;SDS011;66371;52.714;5.074;2023-07-20T08:54:33;3.28;;;2.90;;
77310;SDS011;66371;52.714;5.074;2023-07-20T08:57:04;3.60;;;3.28;;
77310;SDS011;66371;52.714;5.074;2023-07-20T08:59:31;2.95;;;2.40;;
77310;SDS011;66371;52.714;5.074;2023-07-20T09:02:00;3.78;;;3.47;;
77310;SDS011;66371;52.714;5.074;2023-07-20T09:04:27;5.45;;;3.17;;
77310;SDS011;66371;52.714;5.074;2023-07-20T09:06:52;3.33;;;3.00;;
77310;SDS011;66371;52.714;5.074;2023-07-20T09:09:18;5.43;;;3.08;;
77310;SDS011;66371;52.714;5.074;2023-07-20T09:11:44;3.40;;;2.72;;
77310;SDS011;66371;52.714;5.074;2023-07-20T09:14:12;3.50;;;2.50;;
77310;SDS011;66371;52.714;5.074;2023-07-20T09:16:47;4.38;;;3.45;;
77310;SDS011;66371;52.714;5.074;2023-07-20T09:19:18;2.55;;;2.35;;
77310;SDS011;66371;52.714;5.074;2023-07-20T09:21:44;4.75;;;4.15;;
77310;SDS011;66371;52.714;5.074;2023-07-20T09:24:11;4.30;;;3.90;;
77310;SDS011;66371;52.714;5.074;2023-07-20T09:26:41;3.08;;;2.83;;
77310;SDS011;66371;52.714;5.074;2023-07-20T09:29:08;4.03;;;2.70;;
77310;SDS011;66371;52.714;5.074;2023-07-20T09:31:35;3.85;;;3.55;;
77310;SDS011;66371;52.714;5.074;2023-07-20T09:34:00;3.50;;;2.50;;
77310;SDS011;66371;52.714;5.074;2023-07-20T09:36:26;3.75;;;3.55;;
77310;SDS011;66371;52.714;5.074;2023-07-20T09:38:52;2.55;;;2.35;;
77310;SDS011;66371;52.714;5.074;2023-07-20T09:41:18;3.13;;;2.40;;
77310;SDS011;66371;52.714;5.074;2023-07-20T09:43:43;2.90;;;2.70;;
77310;SDS011;66371;52.714;5.074;2023-07-20T09:46:10;5.15;;;3.30;;
77310;SDS011;66371;52.714;5.074;2023-07-20T09:48:36;3.80;;;3.50;;
77310;SDS011;66371;52.714;5.074;2023-07-20T09:51:01;2.97;;;2.67;;
77310;SDS011;66371;52.714;5.074;2023-07-20T09:53:27;3.13;;;2.83;;
77310;SDS011;66371;52.714;5.074;2023-07-20T09:55:53;3.22;;;2.92;;
77310;SDS011;66371;52.714;5.074;2023-07-20T09:58:19;4.18;;;3.88;;
77310;SDS011;66371;52.714;5.074;2023-07-20T10:00:46;3.13;;;2.92;;
77310;SDS011;66371;52.714;5.074;2023-07-20T10:03:18;2.67;;;2.47;;
77310;SDS011;66371;52.714;5.074;2023-07-20T10:05:46;3.08;;;2.85;;
77310;SDS011;66371;52.714;5.074;2023-07-20T10:08:16;3.75;;;3.08;;
77310;SDS011;66371;52.714;5.074;2023-07-20T10:10:45;4.97;;;3.70;;
77310;SDS011;66371;52.714;5.074;2023-07-20T10:13:17;3.80;;;3.10;;
77310;SDS011;66371;52.714;5.074;2023-07-20T10:15:46;3.92;;;3.60;;
77310;SDS011;66371;52.714;5.074;2023-07-20T10:18:22;2.65;;;2.45;;
77310;SDS011;66371;52.714;5.074;2023-07-20T10:20:49;3.60;;;3.10;;
77310;SDS011;66371;52.714;5.074;2023-07-20T10:23:17;2.53;;;2.33;;
77310;SDS011;66371;52.714;5.074;2023-07-20T10:25:42;3.15;;;2.22;;
77310;SDS011;66371;52.714;5.074;2023-07-20T10:28:08;3.45;;;3.15;;
77310;SDS011;66371;52.714;5.074;2023-07-20T10:30:35;4.78;;;2.65;;
77310;SDS011;66371;52.714;5.074;2023-07-20T10:33:04;3.10;;;2.80;;
77310;SDS011;66371;52.714;5.074;2023-07-20T10:35:31;3.08;;;2.85;;
77310;SDS011;66371;52.714;5.074;2023-07-20T10:38:15;3.38;;;2.67;;
77310;SDS011;66371;52.714;5.074;2023-07-20T10:40:41;5.00;;;4.60;;
77310;SDS011;66371;52.714;5.074;2023-07-20T10:43:07;3.53;;;2.90;;
77310;SDS011;66371;52.714;5.074;2023-07-20T10:45:34;2.47;;;2.28;;
77310;SDS011;66371;52.714;5.074;2023-07-20T10:53:44;3.50;;;2.97;;
77310;SDS011;66371;52.714;5.074;2023-07-20T10:56:13;2.90;;;2.60;;
77310;SDS011;66371;52.714;5.074;2023-07-20T10:58:40;3.92;;;2.67;;
77310;SDS011;66371;52.714;5.074;2023-07-20T11:01:07;3.55;;;3.25;;
77310;SDS011;66371;52.714;5.074;2023-07-20T11:03:38;4.53;;;2.63;;
77310;SDS011;66371;52.714;5.074;2023-07-20T11:08:48;2.85;;;2.45;;
77310;SDS011;66371;52.714;5.074;2023-07-20T11:11:26;2.92;;;2.42;;
77310;SDS011;66371;52.714;5.074;2023-07-20T11:14:02;3.35;;;2.35;;
77310;SDS011;66371;52.714;5.074;2023-07-20T11:16:33;2.95;;;2.58;;
77310;SDS011;66371;52.714;5.074;2023-07-20T11:21:27;3.65;;;2.40;;
77310;SDS011;66371;52.714;5.074;2023-07-20T11:23:53;2.35;;;1.75;;
77310;SDS011;66371;52.714;5.074;2023-07-20T11:26:18;3.17;;;2.83;;
77310;SDS011;66371;52.714;5.074;2023-07-20T11:28:53;2.25;;;1.90;;
77310;SDS011;66371;52.714;5.074;2023-07-20T11:31:18;3.45;;;2.13;;
77310;SDS011;66371;52.714;5.074;2023-07-20T11:33:44;2.25;;;2.05;;
77310;SDS011;66371;52.714;5.074;2023-07-20T11:36:11;2.28;;;2.00;;
77310;SDS011;66371;52.714;5.074;2023-07-20T11:38:36;2.70;;;2.43;;
77310;SDS011;66371;52.714;5.074;2023-07-20T11:41:04;2.17;;;1.95;;
77310;SDS011;66371;52.714;5.074;2023-07-20T11:43:30;3.47;;;3.17;;
77310;SDS011;66371;52.714;5.074;2023-07-20T11:45:56;3.47;;;2.30;;
77310;SDS011;66371;52.714;5.074;2023-07-20T11:48:21;2.40;;;2.20;;
77310;SDS011;66371;52.714;5.074;2023-07-20T11:50:47;3.35;;;2.22;;
77310;SDS011;66371;52.714;5.074;2023-07-20T11:53:13;3.70;;;2.10;;
77310;SDS011;66371;52.714;5.074;2023-07-20T11:55:40;2.28;;;2.08;;
77310;SDS011;66371;52.714;5.074;2023-07-20T11:58:06;3.13;;;2.22;;
77310;SDS011;66371;52.714;5.074;2023-07-20T12:00:33;2.47;;;2.28;;
77310;SDS011;66371;52.714;5.074;2023-07-20T12:02:59;4.68;;;2.60;;
77310;SDS011;66371;52.714;5.074;2023-07-20T12:05:25;2.60;;;1.90;;
77310;SDS011;66371;52.714;5.074;2023-07-20T12:07:54;2.70;;;2.40;;
77310;SDS011;66371;52.714;5.074;2023-07-20T12:10:24;4.53;;;4.20;;
77310;SDS011;66371;52.714;5.074;2023-07-20T12:12:51;2.78;;;2.42;;
77310;SDS011;66371;52.714;5.074;2023-07-20T12:15:19;3.67;;;3.38;;
77310;SDS011;66371;52.714;5.074;2023-07-20T12:17:45;2.88;;;2.63;;
77310;SDS011;66371;52.714;5.074;2023-07-20T12:20:12;3.13;;;2.72;;
77310;SDS011;66371;52.714;5.074;2023-07-20T12:22:41;3.60;;;3.25;;
77310;SDS011;66371;52.714;5.074;2023-07-20T12:25:08;3.60;;;3.30;;
77310;SDS011;66371;52.714;5.074;2023-07-20T12:27:37;4.00;;;3.38;;
77310;SDS011;66371;52.714;5.074;2023-07-20T12:30:04;3.33;;;3.03;;
77310;SDS011;66371;52.714;5.074;2023-07-20T12:32:33;3.72;;;3.42;;
77310;SDS011;66371;52.714;5.074;2023-07-20T12:34:58;3.42;;;3.20;;
77310;SDS011;66371;52.714;5.074;2023-07-20T12:37:25;2.97;;;2.78;;
77310;SDS011;66371;52.714;5.074;2023-07-20T12:39:51;4.57;;;4.22;;
77310;SDS011;66371;52.714;5.074;2023-07-20T12:42:17;3.15;;;2.85;;
77310;SDS011;66371;52.714;5.074;2023-07-20T12:44:42;3.70;;;3.40;;
77310;SDS011;66371;52.714;5.074;2023-07-20T12:47:07;2.60;;;2.37;;
77310;SDS011;66371;52.714;5.074;2023-07-20T12:49:33;2.97;;;2.70;;
77310;SDS011;66371;52.714;5.074;2023-07-20T12:51:58;2.50;;;2.30;;
77310;SDS011;66371;52.714;5.074;2023-07-20T12:54:23;2.80;;;2.47;;
77310;SDS011;66371;52.714;5.074;2023-07-20T12:56:49;3.70;;;3.40;;
77310;SDS011;66371;52.714;5.074;2023-07-20T12:59:14;3.22;;;2.90;;
77310;SDS011;66371;52.714;5.074;2023-07-20T13:01:40;4.07;;;3.65;;
77310;SDS011;66371;52.714;5.074;2023-07-20T13:04:06;2.90;;;2.65;;
77310;SDS011;66371;52.714;5.074;2023-07-20T13:06:34;3.67;;;3.38;;
77310;SDS011;66371;52.714;5.074;2023-07-20T13:08:59;3.55;;;2.35;;
77310;SDS011;66371;52.714;5.074;2023-07-20T13:11:25;3.30;;;3.00;;
77310;SDS011;66371;52.714;5.074;2023-07-20T13:13:51;3.42;;;2.85;;
77310;SDS011;66371;52.714;5.074;2023-07-20T13:16:16;3.25;;;2.75;;
77310;SDS011;66371;52.714;5.074;2023-07-20T13:18:42;3.45;;;3.15;;
77310;SDS011;66371;52.714;5.074;2023-07-20T13:21:07;2.85;;;2.55;;
77310;SDS011;66371;52.714;5.074;2023-07-20T13:23:36;3.40;;;3.10;;
77310;SDS011;66371;52.714;5.074;2023-07-20T13:26:02;3.42;;;2.45;;
77310;SDS011;66371;52.714;5.074;2023-07-20T13:28:28;3.30;;;3.00;;
77310;SDS011;66371;52.714;5.074;2023-07-20T13:30:53;2.95;;;2.65;;
77310;SDS011;66371;52.714;5.074;2023-07-20T13:33:18;3.42;;;2.05;;
77310;SDS011;66371;52.714;5.074;2023-07-20T13:35:44;4.20;;;2.27;;
77310;SDS011;66371;52.714;5.074;2023-07-20T13:38:09;5.90;;;2.20;;
77310;SDS011;66371;52.714;5.074;2023-07-20T13:40:35;3.17;;;2.88;;
77310;SDS011;66371;52.714;5.074;2023-07-20T13:43:02;2.90;;;2.70;;
77310;SDS011;66371;52.714;5.074;2023-07-20T13:45:27;2.97;;;2.35;;
77310;SDS011;66371;52.714;5.074;2023-07-20T13:47:52;3.28;;;2.75;;
77310;SDS011;66371;52.714;5.074;2023-07-20T13:50:18;3.23;;;2.90;;
77310;SDS011;66371;52.714;5.074;2023-07-20T13:52:43;2.03;;;1.50;;
77310;SDS011;66371;52.714;5.074;2023-07-20T13:55:08;2.75;;;2.55;;
77310;SDS011;66371;52.714;5.074;2023-07-20T13:57:34;3.55;;;2.75;;
77310;SDS011;66371;52.714;5.074;2023-07-20T13:59:59;3.25;;;2.95;;
77310;SDS011;66371;52.714;5.074;2023-07-20T14:02:26;2.30;;;2.10;;
77310;SDS011;66371;52.714;5.074;2023-07-20T14:04:51;2.80;;;2.20;;
77310;SDS011;66371;52.714;5.074;2023-07-20T14:07:19;2.90;;;2.60;;
77310;SDS011;66371;52.714;5.074;2023-07-20T14:09:45;3.27;;;3.03;;
77310;SDS011;66371;52.714;5.074;2023-07-20T14:12:10;2.13;;;1.73;;
77310;SDS011;66371;52.714;5.074;2023-07-20T14:14:38;3.25;;;2.97;;
77310;SDS011;66371;52.714;5.074;2023-07-20T14:17:04;3.95;;;2.60;;
77310;SDS011;66371;52.714;5.074;2023-07-20T14:19:30;3.63;;;2.63;;
77310;SDS011;66371;52.714;5.074;2023-07-20T14:21:55;3.05;;;2.80;;
77310;SDS011;66371;52.714;5.074;2023-07-20T14:24:20;3.25;;;2.80;;
77310;SDS011;66371;52.714;5.074;2023-07-20T14:26:46;3.00;;;2.70;;
77310;SDS011;66371;52.714;5.074;2023-07-20T14:29:13;3.90;;;2.47;;
77310;SDS011;66371;52.714;5.074;2023-07-20T14:31:38;2.80;;;2.60;;
77310;SDS011;66371;52.714;5.074;2023-07-20T14:34:04;2.90;;;1.80;;
77310;SDS011;66371;52.714;5.074;2023-07-20T14:36:30;3.88;;;2.40;;
77310;SDS011;66371;52.714;5.074;2023-07-20T14:38:55;2.65;;;1.70;;
77310;SDS011;66371;52.714;5.074;2023-07-20T14:41:21;3.20;;;2.90;;
77310;SDS011;66371;52.714;5.074;2023-07-20T14:43:46;3.80;;;1.90;;
77310;SDS011;66371;52.714;5.074;2023-07-20T14:46:11;2.83;;;2.10;;
77310;SDS011;66371;52.714;5.074;2023-07-20T14:48:37;1.98;;;1.77;;
77310;SDS011;66371;52.714;5.074;2023-07-20T14:51:02;3.95;;;2.45;;
77310;SDS011;66371;52.714;5.074;2023-07-20T14:53:28;2.78;;;2.58;;
77310;SDS011;66371;52.714;5.074;2023-07-20T14:55:58;2.22;;;2.00;;
77310;SDS011;66371;52.714;5.074;2023-07-20T14:58:24;2.30;;;1.85;;
77310;SDS011;66371;52.714;5.074;2023-07-20T15:00:50;4.40;;;2.37;;
77310;SDS011;66371;52.714;5.074;2023-07-20T15:03:16;2.45;;;2.25;;
77310;SDS011;66371;52.714;5.074;2023-07-20T15:05:41;3.10;;;2.53;;